createdAt,value
2022-12-13T00:01:26.113Z,9.57
2022-12-13T00:03:57.025Z,7.95
2022-12-13T00:06:27.216Z,8.82
2022-12-13T00:08:56.320Z,8.65
2022-12-13T00:11:25.813Z,9.05
2022-12-13T00:13:54.969Z,8.65
2022-12-13T00:16:25.412Z,19.08
2022-12-13T00:18:57.512Z,12.85
2022-12-13T00:21:31.866Z,27.00
2022-12-13T00:24:01.328Z,26.08
2022-12-13T00:26:32.382Z,13.70
2022-12-13T00:29:01.747Z,10.75
2022-12-13T00:34:23.733Z,8.98
2022-12-13T00:36:54.445Z,10.02
2022-12-13T00:39:22.913Z,7.97
2022-12-13T00:41:52.429Z,7.63
2022-12-13T00:44:22.363Z,10.52
2022-12-13T00:46:53.420Z,12.73
2022-12-13T00:49:21.461Z,6.15
2022-12-13T00:51:50.057Z,10.10
2022-12-13T00:54:18.868Z,11.63
2022-12-13T00:56:49.792Z,7.80
2022-12-13T00:59:17.916Z,9.63
2022-12-13T01:01:46.393Z,8.73
2022-12-13T01:04:15.694Z,10.23
2022-12-13T01:06:50.448Z,11.70
2022-12-13T01:09:27.904Z,10.30
2022-12-13T01:12:01.614Z,11.55
2022-12-13T01:14:33.664Z,10.23
2022-12-13T01:17:03.868Z,9.82
2022-12-13T01:19:41.812Z,7.15
2022-12-13T01:22:12.007Z,11.80
2022-12-13T01:24:41.492Z,18.50
2022-12-13T01:27:10.559Z,13.90
2022-12-13T01:29:39.797Z,44.45
2022-12-13T01:32:09.848Z,7.28
2022-12-13T01:34:38.629Z,6.47
2022-12-13T01:37:07.540Z,8.77
2022-12-13T01:39:38.159Z,8.55
2022-12-13T01:42:08.445Z,12.02
2022-12-13T01:44:57.800Z,6.63
2022-12-13T01:47:33.064Z,8.07
2022-12-13T01:50:05.510Z,8.05
2022-12-13T01:52:35.113Z,6.72
2022-12-13T01:55:05.845Z,5.30
2022-12-13T01:57:39.610Z,7.18
2022-12-13T02:00:13.246Z,20.80
2022-12-13T02:02:42.713Z,8.88
2022-12-13T02:05:31.529Z,8.48
2022-12-13T02:08:02.152Z,6.88
2022-12-13T02:10:30.613Z,6.15
2022-12-13T02:12:59.327Z,5.93
2022-12-13T02:15:31.174Z,137.85
2022-12-13T02:18:09.344Z,21.27
2022-12-13T02:20:56.092Z,15.43
2022-12-13T02:23:43.547Z,6.00
2022-12-13T02:26:27.414Z,7.43
2022-12-13T02:28:59.856Z,5.40
2022-12-13T02:31:33.840Z,8.02
2022-12-13T02:34:02.615Z,7.47
2022-12-13T02:36:41.447Z,5.97
2022-12-13T02:39:12.573Z,5.50
2022-12-13T02:41:49.999Z,5.95
2022-12-13T02:44:28.226Z,8.23
2022-12-13T02:47:12.684Z,6.57
2022-12-13T02:49:44.996Z,7.40
2022-12-13T02:52:14.704Z,5.35
2022-12-13T02:54:54.641Z,6.20
2022-12-13T02:57:30.205Z,8.18
2022-12-13T03:00:02.062Z,5.03
2022-12-13T03:02:31.691Z,6.43
2022-12-13T03:05:22.198Z,5.47
2022-12-13T03:07:57.066Z,6.45
2022-12-13T03:10:31.286Z,4.78
2022-12-13T03:13:34.952Z,6.07
2022-12-13T03:16:15.847Z,5.00
2022-12-13T03:18:53.326Z,5.10
2022-12-13T03:21:26.713Z,6.97
2022-12-13T03:23:55.392Z,5.47
2022-12-13T03:26:27.385Z,4.65
2022-12-13T03:28:56.085Z,4.13
2022-12-13T03:31:25.778Z,5.15
2022-12-13T03:33:53.968Z,5.25
2022-12-13T03:36:23.020Z,6.47
2022-12-13T03:38:54.551Z,5.32
2022-12-13T03:41:31.555Z,5.43
2022-12-13T03:44:00.557Z,5.68
2022-12-13T03:46:30.414Z,7.15
2022-12-13T03:48:58.642Z,8.52
2022-12-13T03:51:27.117Z,6.20
2022-12-13T03:53:55.823Z,4.95
2022-12-13T03:56:26.352Z,4.95
2022-12-13T03:58:54.606Z,6.30
2022-12-13T04:01:23.593Z,7.50
2022-12-13T04:03:53.305Z,6.93
2022-12-13T04:06:23.473Z,6.68
2022-12-13T04:08:54.620Z,10.75
2022-12-13T04:11:42.383Z,10.68
2022-12-13T04:14:21.747Z,9.98
2022-12-13T04:16:53.995Z,8.73
2022-12-13T04:19:24.291Z,12.80
2022-12-13T04:21:54.598Z,8.15
2022-12-13T04:24:31.240Z,21.98
2022-12-13T04:27:02.590Z,27.35
2022-12-13T04:29:33.919Z,16.85
2022-12-13T04:32:04.865Z,14.13
2022-12-13T04:34:40.216Z,21.33
2022-12-13T04:37:08.676Z,11.77
2022-12-13T04:39:36.943Z,11.05
2022-12-13T04:42:06.061Z,8.50
2022-12-13T04:44:37.272Z,9.35
2022-12-13T04:47:05.978Z,6.70
2022-12-13T04:49:34.805Z,7.90
2022-12-13T04:52:04.365Z,11.02
2022-12-13T04:54:37.904Z,11.27
2022-12-13T04:57:07.934Z,10.75
2022-12-13T04:59:36.934Z,9.45
2022-12-13T05:02:06.607Z,7.40
2022-12-13T05:04:34.922Z,9.00
2022-12-13T05:07:03.819Z,7.85
2022-12-13T05:09:32.499Z,10.35
2022-12-13T05:12:02.145Z,11.75
2022-12-13T05:14:31.963Z,12.45
2022-12-13T05:17:01.352Z,29.77
2022-12-13T05:19:31.721Z,24.05
2022-12-13T05:22:03.462Z,25.17
2022-12-13T05:24:32.324Z,16.15
2022-12-13T05:27:01.206Z,13.13
2022-12-13T05:29:29.885Z,8.00
2022-12-13T05:31:59.456Z,8.95
2022-12-13T05:34:27.718Z,7.53
2022-12-13T05:36:56.187Z,10.43
2022-12-13T05:39:29.246Z,10.68
2022-12-13T05:42:01.180Z,13.88
2022-12-13T05:44:32.695Z,13.48
2022-12-13T05:47:03.813Z,14.18
2022-12-13T05:49:33.341Z,16.15
2022-12-13T05:52:20.776Z,9.90
2022-12-13T05:54:56.624Z,7.93
2022-12-13T05:57:37.144Z,7.50
2022-12-13T06:00:29.670Z,7.65
2022-12-13T06:03:05.153Z,14.23
2022-12-13T06:05:34.193Z,44.35
2022-12-13T06:08:02.757Z,19.45
2022-12-13T06:11:10.648Z,11.30
2022-12-13T06:13:44.337Z,14.23
2022-12-13T06:16:22.599Z,14.73
2022-12-13T06:19:01.369Z,10.30
2022-12-13T06:21:41.135Z,10.15
2022-12-13T06:24:15.383Z,9.93
2022-12-13T06:26:45.243Z,11.38
2022-12-13T06:29:24.324Z,11.88
2022-12-13T06:32:02.004Z,12.95
2022-12-13T06:34:34.440Z,12.82
2022-12-13T06:37:05.373Z,11.18
2022-12-13T06:39:34.410Z,14.90
2022-12-13T06:42:06.928Z,13.98
2022-12-13T06:44:35.977Z,11.57
2022-12-13T06:47:10.743Z,13.25
2022-12-13T06:49:44.224Z,20.40
2022-12-13T06:52:16.946Z,19.70
2022-12-13T06:54:48.590Z,11.80
2022-12-13T06:57:16.874Z,11.68
2022-12-13T06:59:47.332Z,13.25
2022-12-13T07:02:25.038Z,13.05
2022-12-13T07:04:56.264Z,13.70
2022-12-13T07:07:26.345Z,13.60
2022-12-13T07:09:55.493Z,12.95
2022-12-13T07:12:26.501Z,13.75
2022-12-13T07:15:00.885Z,17.25
2022-12-13T07:17:32.969Z,15.38
2022-12-13T07:20:05.456Z,12.75
2022-12-13T07:22:34.566Z,15.73
2022-12-13T07:25:05.954Z,20.27
2022-12-13T07:27:35.008Z,19.48
2022-12-13T07:30:03.970Z,23.00
2022-12-13T07:32:36.144Z,19.85
2022-12-13T07:35:06.680Z,14.20
2022-12-13T07:37:36.483Z,24.98
2022-12-13T07:40:11.736Z,14.40
2022-12-13T07:42:42.565Z,16.13
2022-12-13T07:45:12.322Z,12.85
2022-12-13T07:47:40.467Z,19.63
2022-12-13T07:50:24.408Z,17.02
2022-12-13T07:52:56.315Z,13.27
2022-12-13T07:55:33.555Z,17.73
2022-12-13T07:58:07.251Z,14.30
2022-12-13T08:00:37.599Z,15.82
2022-12-13T08:03:06.122Z,12.95
2022-12-13T08:05:39.413Z,13.20
2022-12-13T08:08:11.802Z,13.30
2022-12-13T08:10:43.292Z,12.30
2022-12-13T08:13:13.290Z,11.93
2022-12-13T08:15:44.527Z,12.02
2022-12-13T08:18:12.915Z,9.35
2022-12-13T08:20:47.227Z,10.02
2022-12-13T08:23:18.736Z,10.15
2022-12-13T08:25:51.988Z,8.88
2022-12-13T08:28:20.312Z,9.75
2022-12-13T08:30:49.950Z,9.93
2022-12-13T08:33:19.017Z,9.60
2022-12-13T08:35:48.300Z,9.07
2022-12-13T08:38:22.522Z,21.88
2022-12-13T08:43:24.996Z,12.02
2022-12-13T08:45:54.155Z,16.15
2022-12-13T08:48:35.966Z,10.65
2022-12-13T08:51:24.406Z,15.52
2022-12-13T08:53:54.451Z,12.13
2022-12-13T08:56:43.747Z,11.52
2022-12-13T08:59:20.371Z,11.30
2022-12-13T09:01:49.414Z,11.15
2022-12-13T09:04:31.945Z,12.20
2022-12-13T09:07:01.786Z,14.10
2022-12-13T09:09:30.416Z,11.80
2022-12-13T09:11:59.695Z,10.43
2022-12-13T09:14:33.845Z,11.32
2022-12-13T09:17:03.794Z,10.88
2022-12-13T09:19:37.055Z,13.00
2022-12-13T09:22:08.615Z,13.82
2022-12-13T09:24:43.040Z,10.90
2022-12-13T09:27:27.884Z,11.73
2022-12-13T09:29:57.983Z,9.95
2022-12-13T09:32:28.265Z,11.90
2022-12-13T09:34:57.671Z,12.07
2022-12-13T09:37:26.281Z,13.60
2022-12-13T09:39:56.198Z,13.60
2022-12-13T09:42:31.387Z,12.35
2022-12-13T09:45:03.812Z,21.80
2022-12-13T09:47:37.186Z,16.15
2022-12-13T09:50:29.435Z,13.10
2022-12-13T09:53:11.713Z,18.15
2022-12-13T09:55:49.481Z,20.52
2022-12-13T09:58:24.301Z,23.52
2022-12-13T10:00:54.154Z,35.35
2022-12-13T10:03:24.665Z,35.90
2022-12-13T10:05:56.301Z,36.08
2022-12-13T10:08:26.028Z,81.32
2022-12-13T10:10:54.920Z,28.77
2022-12-13T10:13:38.390Z,27.77
2022-12-13T10:16:23.310Z,60.47
2022-12-13T10:18:53.320Z,156.30
2022-12-13T10:21:22.993Z,70.40
2022-12-13T10:24:25.915Z,25.90
2022-12-13T10:26:50.142Z,19.15
2022-12-13T10:29:21.395Z,21.42
2022-12-13T10:31:51.570Z,25.05
2022-12-13T10:34:23.343Z,19.70
2022-12-13T10:36:52.015Z,17.98
2022-12-13T10:39:41.395Z,22.83
2022-12-13T10:42:22.108Z,24.13
2022-12-13T10:45:15.124Z,34.95
2022-12-13T10:47:47.729Z,23.52
2022-12-13T10:50:37.103Z,19.20
2022-12-13T10:53:05.722Z,17.38
2022-12-13T10:55:35.660Z,18.05
2022-12-13T10:58:12.455Z,18.70
2022-12-13T11:00:45.166Z,14.40
2022-12-13T11:03:28.834Z,14.52
2022-12-13T11:06:05.219Z,17.08
2022-12-13T11:08:33.931Z,13.40
2022-12-13T11:11:07.071Z,14.13
2022-12-13T11:13:38.673Z,14.20
2022-12-13T11:16:26.291Z,17.17
2022-12-13T11:18:56.610Z,12.35
2022-12-13T11:21:33.684Z,17.75
2022-12-13T11:24:07.454Z,16.63
2022-12-13T11:26:38.831Z,13.80
2022-12-13T11:29:26.388Z,16.10
2022-12-13T11:32:04.590Z,16.60
2022-12-13T11:34:48.159Z,13.50
2022-12-13T11:37:28.652Z,12.05
2022-12-13T11:40:01.239Z,14.00
2022-12-13T11:42:46.503Z,13.37
2022-12-13T11:45:22.308Z,13.73
2022-12-13T11:48:09.495Z,14.55
2022-12-13T11:50:42.447Z,13.48
2022-12-13T11:53:23.870Z,12.02
2022-12-13T11:55:52.538Z,13.55
2022-12-13T11:58:53.801Z,13.45
2022-12-13T12:01:17.450Z,14.00
2022-12-13T12:03:53.576Z,23.52
2022-12-13T12:06:47.541Z,27.85
2022-12-13T12:09:26.803Z,34.80
2022-12-13T12:12:03.457Z,23.42
2022-12-13T12:14:38.459Z,28.13
2022-12-13T12:17:17.297Z,16.02
2022-12-13T12:20:23.811Z,15.88
2022-12-13T12:23:08.050Z,13.50
2022-12-13T12:25:52.875Z,12.85
2022-12-13T12:28:44.214Z,10.30
2022-12-13T12:31:22.094Z,11.13
2022-12-13T12:33:51.436Z,10.60
2022-12-13T12:36:31.834Z,16.35
2022-12-13T12:39:26.651Z,17.23
2022-12-13T12:42:19.684Z,15.07
2022-12-13T12:44:56.061Z,13.35
2022-12-13T12:48:41.391Z,11.57
2022-12-13T12:54:26.162Z,19.98
2022-12-13T12:57:52.022Z,11.20
2022-12-13T13:00:39.370Z,13.30
2022-12-13T13:03:27.569Z,11.43
2022-12-13T13:06:04.846Z,11.88
2022-12-13T13:08:40.050Z,12.50
2022-12-13T13:11:24.314Z,13.45
2022-12-13T13:17:23.622Z,17.45
2022-12-13T13:20:17.194Z,12.10
2022-12-13T13:23:32.024Z,10.57
2022-12-13T13:28:51.171Z,11.15
2022-12-13T13:31:29.961Z,10.55
2022-12-13T13:34:21.033Z,11.43
2022-12-13T13:36:56.751Z,9.50
2022-12-13T13:39:54.957Z,13.13
2022-12-13T13:42:44.160Z,12.05
2022-12-13T13:45:25.978Z,10.35
2022-12-13T13:48:21.469Z,11.52
2022-12-13T13:51:24.030Z,11.13
2022-12-13T13:54:02.096Z,42.43
2022-12-13T13:56:35.791Z,29.00
2022-12-13T13:59:24.556Z,19.85
2022-12-13T14:02:01.378Z,14.73
2022-12-13T14:04:41.072Z,12.45
2022-12-13T14:07:26.758Z,10.93
2022-12-13T14:10:14.540Z,13.63
2022-12-13T14:16:04.640Z,18.52
2022-12-13T14:18:55.197Z,14.93
2022-12-13T14:21:32.372Z,18.98
2022-12-13T14:24:04.403Z,18.38
2022-12-13T14:26:42.370Z,16.10
2022-12-13T14:29:15.654Z,17.63
2022-12-13T14:31:48.832Z,18.70
2022-12-13T14:34:23.170Z,18.17
2022-12-13T14:37:14.770Z,16.30
2022-12-13T14:39:45.313Z,15.95
2022-12-13T14:42:33.932Z,16.48
2022-12-13T14:45:22.459Z,26.02
2022-12-13T14:47:54.922Z,29.05
2022-12-13T14:50:25.963Z,26.45
2022-12-13T14:52:57.845Z,22.98
2022-12-13T14:55:29.370Z,27.48
2022-12-13T14:58:00.075Z,39.97
2022-12-13T15:00:35.009Z,26.40
2022-12-13T15:03:05.278Z,31.20
2022-12-13T15:05:37.727Z,32.08
2022-12-13T15:08:16.642Z,16.95
2022-12-13T15:10:49.382Z,31.15
2022-12-13T15:13:23.958Z,23.60
2022-12-13T15:15:57.644Z,33.63
2022-12-13T15:18:33.245Z,35.85
2022-12-13T15:21:25.541Z,32.05
2022-12-13T15:24:01.666Z,31.67
2022-12-13T15:26:40.869Z,54.67
2022-12-13T15:29:25.706Z,99.07
2022-12-13T15:31:58.067Z,42.72
2022-12-13T15:34:31.197Z,56.53
2022-12-13T15:37:01.312Z,63.05
2022-12-13T15:39:33.837Z,62.22
2022-12-13T15:42:02.150Z,67.38
2022-12-13T15:44:33.149Z,45.05
2022-12-13T15:47:03.857Z,95.55
2022-12-13T15:49:35.913Z,46.85
2022-12-13T15:52:25.965Z,64.68
2022-12-13T15:54:56.825Z,38.75
2022-12-13T15:57:28.104Z,66.00
2022-12-13T16:00:05.579Z,38.08
2022-12-13T16:02:59.707Z,46.33
2022-12-13T16:05:32.163Z,27.88
2022-12-13T16:08:14.043Z,23.77
2022-12-13T16:10:51.333Z,29.02
2022-12-13T16:13:30.933Z,34.50
2022-12-13T16:16:09.505Z,35.45
2022-12-13T16:18:46.251Z,47.67
2022-12-13T16:21:15.668Z,53.97
2022-12-13T16:23:48.072Z,21.50
2022-12-13T16:26:22.401Z,18.70
2022-12-13T16:28:51.974Z,19.05
2022-12-13T16:31:25.426Z,14.65
2022-12-13T16:33:54.983Z,22.35
2022-12-13T16:36:23.573Z,36.22
2022-12-13T16:38:51.882Z,40.22
2022-12-13T16:41:22.147Z,30.95
2022-12-13T16:43:56.127Z,30.05
2022-12-13T16:47:13.813Z,22.13
2022-12-13T16:49:28.788Z,47.10
2022-12-13T16:52:00.268Z,21.15
2022-12-13T16:54:30.951Z,31.67
2022-12-13T16:57:01.041Z,34.83
2022-12-13T16:59:29.258Z,25.95
2022-12-13T17:01:57.994Z,25.73
2022-12-13T17:04:32.357Z,27.35
2022-12-13T17:07:07.478Z,22.35
2022-12-13T17:09:36.176Z,36.08
2022-12-13T17:12:05.277Z,28.25
2022-12-13T17:14:33.531Z,25.35
2022-12-13T17:17:03.745Z,23.70
2022-12-13T17:19:32.908Z,24.30
2022-12-13T17:22:02.383Z,20.00
2022-12-13T17:24:32.365Z,20.77
2022-12-13T17:27:01.108Z,22.15
2022-12-13T17:29:29.647Z,26.92
2022-12-13T17:31:58.638Z,30.80
2022-12-13T17:34:28.032Z,25.45
2022-12-13T17:37:10.200Z,19.10
2022-12-13T17:39:52.377Z,23.75
2022-12-13T17:42:24.237Z,36.53
2022-12-13T17:44:56.199Z,42.95
2022-12-13T17:47:27.047Z,26.27
2022-12-13T17:49:57.933Z,20.20
2022-12-13T17:52:42.243Z,30.10
2022-12-13T17:55:17.979Z,29.95
2022-12-13T17:57:47.125Z,33.08
2022-12-13T18:00:17.835Z,26.83
2022-12-13T18:02:55.447Z,24.33
2022-12-13T18:05:26.510Z,21.48
2022-12-13T18:07:56.757Z,21.92
2022-12-13T18:10:30.650Z,22.35
2022-12-13T18:13:00.114Z,24.88
2022-12-13T18:15:29.712Z,20.98
2022-12-13T18:18:11.095Z,21.92
2022-12-13T18:20:41.719Z,23.92
2022-12-13T18:23:10.477Z,21.40
2022-12-13T18:25:40.616Z,155.85
2022-12-13T18:28:11.455Z,50.25
2022-12-13T18:30:41.920Z,30.33
2022-12-13T18:33:15.315Z,30.02
2022-12-13T18:35:47.533Z,25.38
2022-12-13T18:38:15.989Z,55.30
2022-12-13T18:40:44.631Z,74.65
2022-12-13T18:43:13.120Z,51.67
2022-12-13T18:45:43.039Z,40.53
2022-12-13T18:48:11.621Z,36.05
2022-12-13T18:50:47.103Z,34.38
2022-12-13T18:53:24.311Z,41.58
2022-12-13T18:55:54.040Z,27.10
2022-12-13T18:58:22.198Z,30.52
2022-12-13T19:00:51.251Z,18.73
2022-12-13T19:03:19.891Z,20.08
2022-12-13T19:05:48.648Z,27.08
2022-12-13T19:08:36.106Z,30.27
2022-12-13T19:11:11.331Z,27.75
2022-12-13T19:13:39.720Z,24.08
2022-12-13T19:16:10.249Z,21.80
2022-12-13T19:18:40.084Z,26.83
2022-12-13T19:21:10.615Z,23.73
2022-12-13T19:23:41.206Z,24.80
2022-12-13T19:26:15.292Z,28.08
2022-12-13T19:28:46.853Z,21.48
2022-12-13T19:31:18.607Z,24.65
2022-12-13T19:33:47.906Z,21.45
2022-12-13T19:36:16.920Z,21.83
2022-12-13T19:38:47.208Z,27.13
2022-12-13T19:41:18.552Z,24.98
2022-12-13T19:43:53.617Z,24.15
2022-12-13T19:46:23.059Z,27.15
2022-12-13T19:48:51.853Z,27.98
2022-12-13T19:51:21.603Z,37.60
2022-12-13T19:53:53.339Z,38.08
2022-12-13T19:56:22.829Z,30.83
2022-12-13T19:58:51.714Z,49.15
2022-12-13T20:01:25.692Z,110.60
2022-12-13T20:03:54.469Z,35.00
2022-12-13T20:06:26.844Z,32.60
2022-12-13T20:08:55.923Z,57.67
2022-12-13T20:11:25.250Z,26.58
2022-12-13T20:13:55.407Z,30.38
2022-12-13T20:16:26.012Z,51.08
2022-12-13T20:19:01.117Z,85.53
2022-12-13T20:21:30.960Z,174.57
2022-12-13T20:24:01.966Z,38.53
2022-12-13T20:26:33.496Z,39.20
2022-12-13T20:29:02.036Z,79.40
2022-12-13T20:31:34.936Z,162.40
2022-12-13T20:34:06.973Z,100.63
2022-12-13T20:36:35.924Z,87.28
2022-12-13T20:39:07.948Z,52.65
2022-12-13T20:41:38.389Z,109.95
2022-12-13T20:44:08.172Z,26.73
2022-12-13T20:46:37.967Z,69.70
2022-12-13T20:49:07.511Z,124.90
2022-12-13T20:51:38.096Z,174.82
2022-12-13T20:54:06.398Z,299.45
2022-12-13T20:56:36.976Z,111.72
2022-12-13T20:59:06.839Z,47.88
2022-12-13T21:01:39.334Z,33.92
2022-12-13T21:04:10.933Z,22.65
2022-12-13T21:06:42.686Z,48.72
2022-12-13T21:09:12.240Z,39.78
2022-12-13T21:11:45.551Z,63.17
2022-12-13T21:14:21.327Z,65.10
2022-12-13T21:16:59.386Z,56.22
2022-12-13T21:19:30.099Z,45.20
2022-12-13T21:22:00.564Z,76.97
2022-12-13T21:24:32.491Z,70.72
2022-12-13T21:27:02.861Z,56.17
2022-12-13T21:29:33.463Z,52.25
2022-12-13T21:32:10.901Z,41.72
2022-12-13T21:34:41.764Z,41.13
2022-12-13T21:37:11.000Z,43.17
2022-12-13T21:39:40.657Z,38.42
2022-12-13T21:42:11.826Z,53.17
2022-12-13T21:44:41.691Z,46.55
2022-12-13T21:47:18.771Z,30.58
2022-12-13T21:49:48.796Z,30.98
2022-12-13T21:52:18.405Z,31.50
2022-12-13T21:54:47.614Z,35.20
2022-12-13T21:57:34.576Z,33.50
2022-12-13T22:00:05.286Z,32.95
2022-12-13T22:02:45.338Z,48.83
2022-12-13T22:05:13.939Z,31.90
2022-12-13T22:07:42.561Z,33.55
2022-12-13T22:10:11.573Z,37.33
2022-12-13T22:12:41.715Z,58.83
2022-12-13T22:15:12.525Z,43.13
2022-12-13T22:17:44.473Z,49.25
2022-12-13T22:20:15.492Z,38.15
2022-12-13T22:22:45.381Z,58.30
2022-12-13T22:25:13.578Z,44.83
2022-12-13T22:27:43.662Z,52.58
2022-12-13T22:30:12.082Z,53.75
2022-12-13T22:32:42.486Z,55.95
2022-12-13T22:35:12.206Z,45.38
2022-12-13T22:37:42.317Z,30.55
2022-12-13T22:40:11.432Z,34.25
2022-12-13T22:42:40.663Z,39.15
2022-12-13T22:45:09.067Z,40.40
2022-12-13T22:47:37.696Z,46.30
2022-12-13T22:50:07.203Z,49.58
2022-12-13T22:52:36.533Z,87.10
2022-12-13T22:55:05.822Z,384.77
2022-12-13T22:57:37.876Z,226.75
2022-12-13T23:00:10.436Z,312.55
2022-12-13T23:02:39.503Z,334.92
2022-12-13T23:05:08.057Z,322.55
2022-12-13T23:07:36.673Z,257.30
2022-12-13T23:10:25.373Z,116.70
2022-12-13T23:13:02.763Z,151.90
2022-12-13T23:15:31.959Z,313.13
2022-12-13T23:18:00.683Z,343.67
2022-12-13T23:20:32.218Z,780.35
2022-12-13T23:23:02.978Z,419.88
2022-12-13T23:25:31.773Z,621.63
2022-12-13T23:28:01.350Z,654.88
2022-12-13T23:30:30.107Z,510.33
2022-12-13T23:32:59.104Z,410.02
2022-12-13T23:35:28.367Z,179.50
2022-12-13T23:37:57.554Z,112.53
2022-12-13T23:40:25.948Z,83.10
2022-12-13T23:42:54.713Z,84.57
2022-12-13T23:45:23.719Z,80.20
2022-12-13T23:47:52.499Z,70.70
2022-12-13T23:50:20.998Z,76.60
2022-12-13T23:52:50.396Z,72.00
2022-12-13T23:55:19.048Z,57.85
2022-12-13T23:57:47.611Z,47.28
